Oakdale, Kentucky
Current Conditions -  °F | °C
As of 9:53 PM on Wednesday 26 Nov 2014 (Local Time) from KPAH Reporting Station
Overcast Overcast  
Wind Chill: 31°   Ceiling: 1100
Heat Index: 38°   Visibility: 8mi
Dew Point: 35°   Wind: 9mph
Humidity: 89%   Direction: 270°W
Pressure: 30.09"   Gusts: NA
Location:  37.0331°N, 88.716°W
Report Text: KPAH 270353Z 27008KT 8SM BKN011 OVC016 03/02 A3009 RMK AO2 SLP191 T00330017
Loading
Personal Weather Stations






























Interactive Weather Map New forecast layout! Learn more

10-Day Weather Forecast

Advertisements
Track Severe Weather on mobile